sensor_id;sensor_type;location;lat;lon;timestamp;pressure;altitude;pressure_sealevel;temperature
67501;BMP180;54349;52.528;19.760;2022-09-09T00:05:04;100371.40;;;22.80
67501;BMP180;54349;52.528;19.760;2022-09-09T00:10:42;100365.80;;;22.90
67501;BMP180;54349;52.528;19.760;2022-09-09T00:16:05;100358.00;;;22.90
67501;BMP180;54349;52.528;19.760;2022-09-09T00:21:43;100375.00;;;22.60
67501;BMP180;54349;52.528;19.760;2022-09-09T00:24:28;100380.40;;;22.70
67501;BMP180;54349;52.528;19.760;2022-09-09T00:27:34;100379.20;;;22.72
67501;BMP180;54349;52.528;19.760;2022-09-09T00:30:19;100376.00;;;22.80
67501;BMP180;54349;52.528;19.760;2022-09-09T00:32:59;100371.20;;;22.80
67501;BMP180;54349;52.528;19.760;2022-09-09T00:35:37;100366.40;;;22.50
67501;BMP180;54349;52.528;19.760;2022-09-09T00:38:28;100359.40;;;22.50
67501;BMP180;54349;52.528;19.760;2022-09-09T00:41:22;100356.40;;;22.60
67501;BMP180;54349;52.528;19.760;2022-09-09T00:44:03;100353.60;;;22.68
67501;BMP180;54349;52.528;19.760;2022-09-09T00:46:50;100362.60;;;22.70
67501;BMP180;54349;52.528;19.760;2022-09-09T00:49:46;100365.80;;;22.66
67501;BMP180;54349;52.528;19.760;2022-09-09T00:52:37;100360.40;;;22.40
67501;BMP180;54349;52.528;19.760;2022-09-09T00:55:19;100359.00;;;22.50
67501;BMP180;54349;52.528;19.760;2022-09-09T00:57:52;100354.40;;;22.50
67501;BMP180;54349;52.528;19.760;2022-09-09T01:00:31;100353.60;;;22.60
67501;BMP180;54349;52.528;19.760;2022-09-09T01:09:04;100354.00;;;22.30
67501;BMP180;54349;52.528;19.760;2022-09-09T01:12:02;100355.60;;;22.40
67501;BMP180;54349;52.528;19.760;2022-09-09T01:17:27;100363.40;;;22.50
67501;BMP180;54349;52.528;19.760;2022-09-09T01:20:25;100364.20;;;22.50
67501;BMP180;54349;52.528;19.760;2022-09-09T01:26:22;100356.20;;;22.30
67501;BMP180;54349;52.528;19.760;2022-09-09T01:28:52;100354.00;;;22.30
67501;BMP180;54349;52.528;19.760;2022-09-09T01:32:01;100348.40;;;22.40
67501;BMP180;54349;52.528;19.760;2022-09-09T01:34:37;100354.20;;;22.40
67501;BMP180;54349;52.528;19.760;2022-09-09T01:37:09;100347.20;;;22.46
67501;BMP180;54349;52.528;19.760;2022-09-09T01:39:43;100348.80;;;22.50
67501;BMP180;54349;52.528;19.760;2022-09-09T01:42:16;100346.40;;;22.30
67501;BMP180;54349;52.528;19.760;2022-09-09T01:44:45;100348.00;;;22.20
67501;BMP180;54349;52.528;19.760;2022-09-09T01:47:15;100349.80;;;22.30
67501;BMP180;54349;52.528;19.760;2022-09-09T01:49:57;100347.00;;;22.30
67501;BMP180;54349;52.528;19.760;2022-09-09T01:52:36;100351.00;;;22.40
67501;BMP180;54349;52.528;19.760;2022-09-09T01:55:08;100346.20;;;22.40
67501;BMP180;54349;52.528;19.760;2022-09-09T01:58:16;100347.20;;;22.50
67501;BMP180;54349;52.528;19.760;2022-09-09T02:01:23;100333.00;;;22.28
67501;BMP180;54349;52.528;19.760;2022-09-09T02:03:57;100331.00;;;22.20
67501;BMP180;54349;52.528;19.760;2022-09-09T02:06:39;100340.00;;;22.20
67501;BMP180;54349;52.528;19.760;2022-09-09T02:09:22;100335.40;;;22.30
67501;BMP180;54349;52.528;19.760;2022-09-09T02:12:01;100332.60;;;22.30
67501;BMP180;54349;52.528;19.760;2022-09-09T02:15:00;100329.80;;;22.40
67501;BMP180;54349;52.528;19.760;2022-09-09T02:17:38;100337.80;;;22.40
67501;BMP180;54349;52.528;19.760;2022-09-09T02:20:15;100340.20;;;22.24
67501;BMP180;54349;52.528;19.760;2022-09-09T02:22:52;100333.60;;;22.14
67501;BMP180;54349;52.528;19.760;2022-09-09T02:25:26;100336.40;;;22.20
67501;BMP180;54349;52.528;19.760;2022-09-09T02:27:57;100337.40;;;22.26
67501;BMP180;54349;52.528;19.760;2022-09-09T02:30:32;100338.80;;;22.30
67501;BMP180;54349;52.528;19.760;2022-09-09T02:33:04;100340.80;;;22.30
67501;BMP180;54349;52.528;19.760;2022-09-09T02:35:51;100339.80;;;22.40
67501;BMP180;54349;52.528;19.760;2022-09-09T02:38:26;100337.20;;;22.40
67501;BMP180;54349;52.528;19.760;2022-09-09T02:41:01;100336.20;;;22.10
67501;BMP180;54349;52.528;19.760;2022-09-09T02:43:34;100331.80;;;22.12
67501;BMP180;54349;52.528;19.760;2022-09-09T02:49:09;100337.60;;;22.28
67501;BMP180;54349;52.528;19.760;2022-09-09T02:54:28;100341.20;;;22.30
67501;BMP180;54349;52.528;19.760;2022-09-09T02:57:14;100343.60;;;22.40
67501;BMP180;54349;52.528;19.760;2022-09-09T02:59:46;100343.20;;;22.20
67501;BMP180;54349;52.528;19.760;2022-09-09T03:02:15;100342.60;;;22.10
67501;BMP180;54349;52.528;19.760;2022-09-09T03:04:45;100345.80;;;22.10
67501;BMP180;54349;52.528;19.760;2022-09-09T03:07:19;100346.80;;;22.20
67501;BMP180;54349;52.528;19.760;2022-09-09T03:09:48;100350.20;;;22.20
67501;BMP180;54349;52.528;19.760;2022-09-09T03:12:17;100340.00;;;22.30
67501;BMP180;54349;52.528;19.760;2022-09-09T03:14:45;100339.40;;;22.30
67501;BMP180;54349;52.528;19.760;2022-09-09T03:17:14;100345.00;;;22.30
67501;BMP180;54349;52.528;19.760;2022-09-09T03:19:48;100345.40;;;22.20
67501;BMP180;54349;52.528;19.760;2022-09-09T03:22:17;100343.80;;;22.00
67501;BMP180;54349;52.528;19.760;2022-09-09T03:24:46;100346.20;;;22.10
67501;BMP180;54349;52.528;19.760;2022-09-09T03:27:14;100350.40;;;22.10
67501;BMP180;54349;52.528;19.760;2022-09-09T03:29:43;100351.20;;;22.20
67501;BMP180;54349;52.528;19.760;2022-09-09T03:32:14;100349.60;;;22.20
67501;BMP180;54349;52.528;19.760;2022-09-09T03:34:45;100350.00;;;22.26
67501;BMP180;54349;52.528;19.760;2022-09-09T03:37:20;100349.20;;;22.30
67501;BMP180;54349;52.528;19.760;2022-09-09T03:39:49;100345.60;;;22.30
67501;BMP180;54349;52.528;19.760;2022-09-09T03:42:17;100349.00;;;22.00
67501;BMP180;54349;52.528;19.760;2022-09-09T03:44:48;100353.80;;;22.02
67501;BMP180;54349;52.528;19.760;2022-09-09T03:47:20;100352.40;;;22.10
67501;BMP180;54349;52.528;19.760;2022-09-09T03:49:50;100356.20;;;22.10
67501;BMP180;54349;52.528;19.760;2022-09-09T03:52:18;100362.40;;;22.20
67501;BMP180;54349;52.528;19.760;2022-09-09T03:54:52;100357.00;;;22.20
67501;BMP180;54349;52.528;19.760;2022-09-09T03:57:21;100362.60;;;22.30
67501;BMP180;54349;52.528;19.760;2022-09-09T03:59:49;100361.40;;;22.30
67501;BMP180;54349;52.528;19.760;2022-09-09T04:02:18;100365.60;;;22.20
67501;BMP180;54349;52.528;19.760;2022-09-09T04:04:47;100360.80;;;22.00
67501;BMP180;54349;52.528;19.760;2022-09-09T04:07:15;100358.40;;;22.02
67501;BMP180;54349;52.528;19.760;2022-09-09T04:09:43;100357.80;;;22.10
67501;BMP180;54349;52.528;19.760;2022-09-09T04:12:14;100359.80;;;22.12
67501;BMP180;54349;52.528;19.760;2022-09-09T04:14:42;100363.60;;;22.20
67501;BMP180;54349;52.528;19.760;2022-09-09T04:17:10;100362.40;;;22.20
67501;BMP180;54349;52.528;19.760;2022-09-09T04:19:38;100360.20;;;22.20
67501;BMP180;54349;52.528;19.760;2022-09-09T04:22:08;100362.60;;;22.30
67501;BMP180;54349;52.528;19.760;2022-09-09T04:24:37;100365.80;;;22.16
67501;BMP180;54349;52.528;19.760;2022-09-09T04:27:05;100363.20;;;22.00
67501;BMP180;54349;52.528;19.760;2022-09-09T04:29:34;100357.00;;;22.00
67501;BMP180;54349;52.528;19.760;2022-09-09T04:32:02;100358.60;;;22.10
67501;BMP180;54349;52.528;19.760;2022-09-09T04:34:31;100354.80;;;22.10
67501;BMP180;54349;52.528;19.760;2022-09-09T04:36:59;100358.40;;;22.18
67501;BMP180;54349;52.528;19.760;2022-09-09T04:39:28;100360.00;;;22.20
67501;BMP180;54349;52.528;19.760;2022-09-09T04:41:58;100358.00;;;22.20
67501;BMP180;54349;52.528;19.760;2022-09-09T04:44:26;100360.40;;;22.24
67501;BMP180;54349;52.528;19.760;2022-09-09T04:46:55;100359.20;;;22.18
67501;BMP180;54349;52.528;19.760;2022-09-09T04:49:23;100360.40;;;21.92
67501;BMP180;54349;52.528;19.760;2022-09-09T04:51:51;100358.80;;;22.00
67501;BMP180;54349;52.528;19.760;2022-09-09T04:54:20;100361.40;;;22.00
67501;BMP180;54349;52.528;19.760;2022-09-09T04:56:50;100360.80;;;22.10
67501;BMP180;54349;52.528;19.760;2022-09-09T04:59:19;100360.60;;;22.10
67501;BMP180;54349;52.528;19.760;2022-09-09T05:01:49;100364.40;;;22.18
67501;BMP180;54349;52.528;19.760;2022-09-09T05:04:18;100366.60;;;22.20
67501;BMP180;54349;52.528;19.760;2022-09-09T05:06:47;100369.20;;;22.20
67501;BMP180;54349;52.528;19.760;2022-09-09T05:09:16;100369.00;;;22.20
67501;BMP180;54349;52.528;19.760;2022-09-09T05:11:44;100368.20;;;22.00
67501;BMP180;54349;52.528;19.760;2022-09-09T05:14:22;100367.80;;;22.00
67501;BMP180;54349;52.528;19.760;2022-09-09T05:16:50;100366.20;;;22.00
67501;BMP180;54349;52.528;19.760;2022-09-09T05:19:19;100363.80;;;22.10
67501;BMP180;54349;52.528;19.760;2022-09-09T05:21:49;100369.80;;;22.10
67501;BMP180;54349;52.528;19.760;2022-09-09T05:24:21;100370.00;;;22.20
67501;BMP180;54349;52.528;19.760;2022-09-09T05:26:53;100375.40;;;22.20
67501;BMP180;54349;52.528;19.760;2022-09-09T05:29:21;100374.20;;;22.20
67501;BMP180;54349;52.528;19.760;2022-09-09T05:31:49;100372.60;;;22.20
67501;BMP180;54349;52.528;19.760;2022-09-09T05:34:19;100375.60;;;22.00
67501;BMP180;54349;52.528;19.760;2022-09-09T05:36:49;100376.60;;;21.90
67501;BMP180;54349;52.528;19.760;2022-09-09T05:39:18;100378.60;;;22.00
67501;BMP180;54349;52.528;19.760;2022-09-09T05:41:46;100374.00;;;22.00
67501;BMP180;54349;52.528;19.760;2022-09-09T05:44:15;100375.80;;;22.10
67501;BMP180;54349;52.528;19.760;2022-09-09T05:46:43;100371.80;;;22.10
67501;BMP180;54349;52.528;19.760;2022-09-09T05:49:13;100380.40;;;22.12
67501;BMP180;54349;52.528;19.760;2022-09-09T05:51:43;100390.60;;;22.20
67501;BMP180;54349;52.528;19.760;2022-09-09T05:54:13;100388.80;;;22.20
67501;BMP180;54349;52.528;19.760;2022-09-09T05:56:46;100387.00;;;22.20
67501;BMP180;54349;52.528;19.760;2022-09-09T05:59:19;100380.40;;;22.00
67501;BMP180;54349;52.528;19.760;2022-09-09T06:01:50;100382.60;;;21.92
67501;BMP180;54349;52.528;19.760;2022-09-09T06:04:39;100385.40;;;22.00
67501;BMP180;54349;52.528;19.760;2022-09-09T06:07:08;100385.20;;;22.10
67501;BMP180;54349;52.528;19.760;2022-09-09T06:09:36;100384.20;;;22.10
67501;BMP180;54349;52.528;19.760;2022-09-09T06:12:07;100386.60;;;22.20
67501;BMP180;54349;52.528;19.760;2022-09-09T06:14:35;100386.20;;;22.20
67501;BMP180;54349;52.528;19.760;2022-09-09T06:17:06;100390.40;;;22.30
67501;BMP180;54349;52.528;19.760;2022-09-09T06:19:36;100394.20;;;22.30
67501;BMP180;54349;52.528;19.760;2022-09-09T06:22:04;100397.00;;;22.18
67501;BMP180;54349;52.528;19.760;2022-09-09T06:24:34;100397.00;;;22.10
67501;BMP180;54349;52.528;19.760;2022-09-09T06:27:03;100407.20;;;22.18
67501;BMP180;54349;52.528;19.760;2022-09-09T06:29:34;100407.60;;;22.20
67501;BMP180;54349;52.528;19.760;2022-09-09T06:32:03;100408.80;;;22.30
67501;BMP180;54349;52.528;19.760;2022-09-09T06:34:31;100405.60;;;22.32
67501;BMP180;54349;52.528;19.760;2022-09-09T06:37:00;100404.00;;;22.40
67501;BMP180;54349;52.528;19.760;2022-09-09T06:39:38;100403.00;;;22.40
67501;BMP180;54349;52.528;19.760;2022-09-09T06:42:07;100397.00;;;22.20
67501;BMP180;54349;52.528;19.760;2022-09-09T06:44:43;100400.80;;;22.20
67501;BMP180;54349;52.528;19.760;2022-09-09T06:47:15;100400.80;;;22.30
67501;BMP180;54349;52.528;19.760;2022-09-09T06:49:44;100403.60;;;22.30
67501;BMP180;54349;52.528;19.760;2022-09-09T06:52:15;100401.20;;;22.40
67501;BMP180;54349;52.528;19.760;2022-09-09T06:54:46;100410.20;;;22.48
67501;BMP180;54349;52.528;19.760;2022-09-09T06:57:15;100412.20;;;22.50
67501;BMP180;54349;52.528;19.760;2022-09-09T07:00:06;100416.20;;;22.40
67501;BMP180;54349;52.528;19.760;2022-09-09T07:02:35;100415.20;;;22.30
67501;BMP180;54349;52.528;19.760;2022-09-09T07:05:08;100416.00;;;22.34
67501;BMP180;54349;52.528;19.760;2022-09-09T07:07:37;100411.60;;;22.40
67501;BMP180;54349;52.528;19.760;2022-09-09T07:10:05;100412.80;;;22.50
67501;BMP180;54349;52.528;19.760;2022-09-09T07:12:34;100415.00;;;22.50
67501;BMP180;54349;52.528;19.760;2022-09-09T07:15:03;100420.20;;;22.60
67501;BMP180;54349;52.528;19.760;2022-09-09T07:17:31;100423.40;;;22.50
67501;BMP180;54349;52.528;19.760;2022-09-09T07:20:00;100423.80;;;22.38
67501;BMP180;54349;52.528;19.760;2022-09-09T07:22:29;100429.60;;;22.40
67501;BMP180;54349;52.528;19.760;2022-09-09T07:24:57;100424.40;;;22.50
67501;BMP180;54349;52.528;19.760;2022-09-09T07:27:25;100425.20;;;22.52
67501;BMP180;54349;52.528;19.760;2022-09-09T07:29:54;100425.60;;;22.60
67501;BMP180;54349;52.528;19.760;2022-09-09T07:32:25;100429.40;;;22.70
67501;BMP180;54349;52.528;19.760;2022-09-09T07:34:53;100430.60;;;22.60
67501;BMP180;54349;52.528;19.760;2022-09-09T07:37:21;100438.20;;;22.44
67501;BMP180;54349;52.528;19.760;2022-09-09T07:39:50;100439.80;;;22.50
67501;BMP180;54349;52.528;19.760;2022-09-09T07:42:19;100441.00;;;22.60
67501;BMP180;54349;52.528;19.760;2022-09-09T07:44:48;100443.80;;;22.60
67501;BMP180;54349;52.528;19.760;2022-09-09T07:47:16;100443.80;;;22.70
67501;BMP180;54349;52.528;19.760;2022-09-09T07:49:47;100448.00;;;22.70
67501;BMP180;54349;52.528;19.760;2022-09-09T07:52:22;100451.40;;;22.40
67501;BMP180;54349;52.528;19.760;2022-09-09T07:54:55;100447.60;;;22.46
67501;BMP180;54349;52.528;19.760;2022-09-09T07:57:25;100449.80;;;22.50
67501;BMP180;54349;52.528;19.760;2022-09-09T07:59:54;100456.00;;;22.60
67501;BMP180;54349;52.528;19.760;2022-09-09T08:02:25;100456.80;;;22.62
67501;BMP180;54349;52.528;19.760;2022-09-09T08:04:56;100455.60;;;22.70
67501;BMP180;54349;52.528;19.760;2022-09-09T08:07:24;100453.60;;;22.60
67501;BMP180;54349;52.528;19.760;2022-09-09T08:09:54;100460.40;;;22.50
67501;BMP180;54349;52.528;19.760;2022-09-09T08:12:31;100460.20;;;22.50
67501;BMP180;54349;52.528;19.760;2022-09-09T08:15:04;100466.20;;;22.60
67501;BMP180;54349;52.528;19.760;2022-09-09T08:17:33;100467.60;;;22.60
67501;BMP180;54349;52.528;19.760;2022-09-09T08:20:05;100467.40;;;22.70
67501;BMP180;54349;52.528;19.760;2022-09-09T08:22:34;100478.60;;;22.70
67501;BMP180;54349;52.528;19.760;2022-09-09T08:25:03;100478.80;;;22.60
67501;BMP180;54349;52.528;19.760;2022-09-09T08:27:35;100481.80;;;22.50
67501;BMP180;54349;52.528;19.760;2022-09-09T08:30:05;100480.20;;;22.60
67501;BMP180;54349;52.528;19.760;2022-09-09T08:32:35;100483.80;;;22.60
67501;BMP180;54349;52.528;19.760;2022-09-09T08:35:08;100487.80;;;22.70
67501;BMP180;54349;52.528;19.760;2022-09-09T08:37:38;100490.60;;;22.70
67501;BMP180;54349;52.528;19.760;2022-09-09T08:40:20;100493.00;;;22.60
67501;BMP180;54349;52.528;19.760;2022-09-09T08:42:53;100488.40;;;22.50
67501;BMP180;54349;52.528;19.760;2022-09-09T08:45:36;100494.00;;;22.56
67501;BMP180;54349;52.528;19.760;2022-09-09T08:48:30;100496.00;;;22.60
67501;BMP180;54349;52.528;19.760;2022-09-09T08:51:05;100498.80;;;22.70
67501;BMP180;54349;52.528;19.760;2022-09-09T08:53:49;100497.60;;;22.74
67501;BMP180;54349;52.528;19.760;2022-09-09T08:56:26;100497.00;;;22.70
67501;BMP180;54349;52.528;19.760;2022-09-09T08:59:01;100499.20;;;22.50
67501;BMP180;54349;52.528;19.760;2022-09-09T09:04:55;100499.40;;;22.70
67501;BMP180;54349;52.528;19.760;2022-09-09T09:10:46;100508.60;;;22.80
67501;BMP180;54349;52.528;19.760;2022-09-09T09:13:59;100512.20;;;22.50
67501;BMP180;54349;52.528;19.760;2022-09-09T09:17:17;100514.80;;;22.60
67501;BMP180;54349;52.528;19.760;2022-09-09T09:19:40;100516.00;;;22.70
67501;BMP180;54349;52.528;19.760;2022-09-09T09:22:41;100521.00;;;22.70
67501;BMP180;54349;52.528;19.760;2022-09-09T09:28:08;100512.00;;;22.68
67501;BMP180;54349;52.528;19.760;2022-09-09T09:30:55;100508.00;;;22.60
67501;BMP180;54349;52.528;19.760;2022-09-09T09:33:47;100505.60;;;22.70
67501;BMP180;54349;52.528;19.760;2022-09-09T09:36:24;100510.00;;;22.72
67501;BMP180;54349;52.528;19.760;2022-09-09T09:39:03;100512.20;;;22.80
67501;BMP180;54349;52.528;19.760;2022-09-09T09:41:53;100509.80;;;22.60
67501;BMP180;54349;52.528;19.760;2022-09-09T09:44:30;100511.80;;;22.60
67501;BMP180;54349;52.528;19.760;2022-09-09T09:47:16;100510.00;;;22.68
67501;BMP180;54349;52.528;19.760;2022-09-09T09:50:20;100524.00;;;22.72
67501;BMP180;54349;52.528;19.760;2022-09-09T09:53:03;100521.40;;;22.80
67501;BMP180;54349;52.528;19.760;2022-09-09T09:55:36;100519.60;;;22.70
67501;BMP180;54349;52.528;19.760;2022-09-09T09:58:15;100522.00;;;22.60
67501;BMP180;54349;52.528;19.760;2022-09-09T10:00:53;100520.00;;;22.70
67501;BMP180;54349;52.528;19.760;2022-09-09T10:03:34;100529.40;;;22.72
67501;BMP180;54349;52.528;19.760;2022-09-09T10:06:09;100530.60;;;22.80
67501;BMP180;54349;52.528;19.760;2022-09-09T10:08:45;100530.20;;;22.80
67501;BMP180;54349;52.528;19.760;2022-09-09T10:14:20;100528.40;;;22.70
67501;BMP180;54349;52.528;19.760;2022-09-09T10:17:57;100537.00;;;22.76
67501;BMP180;54349;52.528;19.760;2022-09-09T10:32:36;100542.40;;;22.80
67501;BMP180;54349;52.528;19.760;2022-09-09T10:35:27;100549.60;;;22.82
67501;BMP180;54349;52.528;19.760;2022-09-09T10:47:14;100550.80;;;22.80
67501;BMP180;54349;52.528;19.760;2022-09-09T10:55:51;100549.60;;;22.68
67501;BMP180;54349;52.528;19.760;2022-09-09T10:58:34;100548.80;;;22.80
67501;BMP180;54349;52.528;19.760;2022-09-09T11:01:19;100545.40;;;22.80
67501;BMP180;54349;52.528;19.760;2022-09-09T11:04:35;100547.60;;;22.82
67501;BMP180;54349;52.528;19.760;2022-09-09T11:07:13;100551.60;;;22.70
67501;BMP180;54349;52.528;19.760;2022-09-09T11:10:01;100567.00;;;22.72
67501;BMP180;54349;52.528;19.760;2022-09-09T11:12:34;100574.40;;;22.84
67501;BMP180;54349;52.528;19.760;2022-09-09T11:15:17;100568.20;;;22.96
67501;BMP180;54349;52.528;19.760;2022-09-09T11:17:53;100564.80;;;22.90
67501;BMP180;54349;52.528;19.760;2022-09-09T11:20:23;100568.00;;;22.70
67501;BMP180;54349;52.528;19.760;2022-09-09T11:23:04;100573.20;;;22.76
67501;BMP180;54349;52.528;19.760;2022-09-09T11:25:52;100568.00;;;22.90
67501;BMP180;54349;52.528;19.760;2022-09-09T11:28:56;100565.80;;;23.00
67501;BMP180;54349;52.528;19.760;2022-09-09T11:40:24;100584.20;;;22.80
67501;BMP180;54349;52.528;19.760;2022-09-09T11:43:18;100589.60;;;23.00
67501;BMP180;54349;52.528;19.760;2022-09-09T11:45:57;100580.40;;;23.10
67501;BMP180;54349;52.528;19.760;2022-09-09T11:51:02;100596.40;;;22.60
67501;BMP180;54349;52.528;19.760;2022-09-09T11:53:33;100593.60;;;22.70
67501;BMP180;54349;52.528;19.760;2022-09-09T11:56:05;100590.60;;;22.86
67501;BMP180;54349;52.528;19.760;2022-09-09T11:58:39;100592.40;;;23.00
67501;BMP180;54349;52.528;19.760;2022-09-09T12:01:36;100589.00;;;23.10
67501;BMP180;54349;52.528;19.760;2022-09-09T12:04:15;100590.00;;;22.86
67501;BMP180;54349;52.528;19.760;2022-09-09T12:12:38;100600.00;;;22.76
67501;BMP180;54349;52.528;19.760;2022-09-09T12:17:49;100596.20;;;22.90
67501;BMP180;54349;52.528;19.760;2022-09-09T12:20:38;100591.00;;;22.80
67501;BMP180;54349;52.528;19.760;2022-09-09T12:23:35;100577.20;;;22.76
67501;BMP180;54349;52.528;19.760;2022-09-09T12:34:44;100562.40;;;22.80
67501;BMP180;54349;52.528;19.760;2022-09-09T12:37:31;100562.60;;;22.70
67501;BMP180;54349;52.528;19.760;2022-09-09T12:42:40;100557.80;;;22.90
67501;BMP180;54349;52.528;19.760;2022-09-09T12:45:22;100561.20;;;23.00
67501;BMP180;54349;52.528;19.760;2022-09-09T12:48:07;100555.80;;;22.96
67501;BMP180;54349;52.528;19.760;2022-09-09T12:50:44;100554.00;;;22.70
67501;BMP180;54349;52.528;19.760;2022-09-09T12:53:28;100554.00;;;22.80
67501;BMP180;54349;52.528;19.760;2022-09-09T12:56:04;100553.00;;;22.90
67501;BMP180;54349;52.528;19.760;2022-09-09T12:58:33;100547.00;;;23.00
67501;BMP180;54349;52.528;19.760;2022-09-09T13:01:05;100547.20;;;23.00
67501;BMP180;54349;52.528;19.760;2022-09-09T13:03:42;100545.00;;;22.86
67501;BMP180;54349;52.528;19.760;2022-09-09T13:06:24;100546.80;;;22.80
67501;BMP180;54349;52.528;19.760;2022-09-09T13:08:59;100548.20;;;22.94
67501;BMP180;54349;52.528;19.760;2022-09-09T13:11:38;100550.60;;;23.10
67501;BMP180;54349;52.528;19.760;2022-09-09T13:14:30;100543.20;;;23.20
67501;BMP180;54349;52.528;19.760;2022-09-09T13:17:05;100539.20;;;22.96
67501;BMP180;54349;52.528;19.760;2022-09-09T13:19:38;100544.80;;;22.70
67501;BMP180;54349;52.528;19.760;2022-09-09T13:25:25;100549.20;;;22.50
67501;BMP180;54349;52.528;19.760;2022-09-09T13:28:03;100553.80;;;22.72
67501;BMP180;54349;52.528;19.760;2022-09-09T13:30:34;100549.40;;;22.90
67501;BMP180;54349;52.528;19.760;2022-09-09T13:35:56;100548.40;;;22.90
67501;BMP180;54349;52.528;19.760;2022-09-09T13:41:33;100547.00;;;22.58
67501;BMP180;54349;52.528;19.760;2022-09-09T13:44:03;100536.60;;;22.70
67501;BMP180;54349;52.528;19.760;2022-09-09T13:46:38;100536.60;;;22.82
67501;BMP180;54349;52.528;19.760;2022-09-09T13:51:43;100538.80;;;23.00
67501;BMP180;54349;52.528;19.760;2022-09-09T13:54:17;100536.60;;;22.80
67501;BMP180;54349;52.528;19.760;2022-09-09T13:56:47;100537.60;;;22.70
67501;BMP180;54349;52.528;19.760;2022-09-09T13:59:19;100544.20;;;22.80
67501;BMP180;54349;52.528;19.760;2022-09-09T14:02:10;100547.00;;;22.90
67501;BMP180;54349;52.528;19.760;2022-09-09T14:04:38;100540.80;;;23.00
67501;BMP180;54349;52.528;19.760;2022-09-09T14:07:13;100544.40;;;22.90
67501;BMP180;54349;52.528;19.760;2022-09-09T14:09:42;100547.00;;;22.70
67501;BMP180;54349;52.528;19.760;2022-09-09T14:12:14;100555.40;;;22.70
67501;BMP180;54349;52.528;19.760;2022-09-09T14:14:43;100554.40;;;22.80
67501;BMP180;54349;52.528;19.760;2022-09-09T14:17:11;100553.40;;;22.90
67501;BMP180;54349;52.528;19.760;2022-09-09T14:19:40;100551.40;;;23.00
67501;BMP180;54349;52.528;19.760;2022-09-09T14:22:08;100554.20;;;22.86
67501;BMP180;54349;52.528;19.760;2022-09-09T14:24:36;100555.80;;;22.70
67501;BMP180;54349;52.528;19.760;2022-09-09T14:27:04;100552.00;;;22.70
67501;BMP180;54349;52.528;19.760;2022-09-09T14:29:32;100550.00;;;22.80
67501;BMP180;54349;52.528;19.760;2022-09-09T14:32:01;100552.60;;;22.90
67501;BMP180;54349;52.528;19.760;2022-09-09T14:34:30;100554.40;;;23.00
67501;BMP180;54349;52.528;19.760;2022-09-09T14:37:00;100551.20;;;22.94
67501;BMP180;54349;52.528;19.760;2022-09-09T14:39:31;100555.60;;;22.80
67501;BMP180;54349;52.528;19.760;2022-09-09T14:41:59;100557.00;;;22.80
67501;BMP180;54349;52.528;19.760;2022-09-09T14:44:28;100558.40;;;22.88
67501;BMP180;54349;52.528;19.760;2022-09-09T14:46:57;100565.80;;;22.92
67501;BMP180;54349;52.528;19.760;2022-09-09T14:49:26;100569.00;;;23.00
67501;BMP180;54349;52.528;19.760;2022-09-09T14:51:54;100568.40;;;22.90
67501;BMP180;54349;52.528;19.760;2022-09-09T14:54:22;100572.60;;;22.72
67501;BMP180;54349;52.528;19.760;2022-09-09T14:56:51;100568.20;;;22.80
67501;BMP180;54349;52.528;19.760;2022-09-09T14:59:19;100573.80;;;22.88
67501;BMP180;54349;52.528;19.760;2022-09-09T15:01:47;100579.00;;;22.90
67501;BMP180;54349;52.528;19.760;2022-09-09T15:04:15;100581.20;;;23.00
67501;BMP180;54349;52.528;19.760;2022-09-09T15:06:45;100579.80;;;22.80
67501;BMP180;54349;52.528;19.760;2022-09-09T15:09:16;100576.20;;;22.72
67501;BMP180;54349;52.528;19.760;2022-09-09T15:11:45;100571.80;;;22.80
67501;BMP180;54349;52.528;19.760;2022-09-09T15:14:13;100566.80;;;22.90
67501;BMP180;54349;52.528;19.760;2022-09-09T15:16:41;100571.60;;;23.00
67501;BMP180;54349;52.528;19.760;2022-09-09T15:19:10;100566.40;;;22.90
67501;BMP180;54349;52.528;19.760;2022-09-09T15:21:39;100562.00;;;22.72
67501;BMP180;54349;52.528;19.760;2022-09-09T15:24:07;100563.40;;;22.80
67501;BMP180;54349;52.528;19.760;2022-09-09T15:26:37;100561.20;;;22.90
67501;BMP180;54349;52.528;19.760;2022-09-09T15:29:08;100546.20;;;22.96
67501;BMP180;54349;52.528;19.760;2022-09-09T15:31:37;100547.60;;;22.90
67501;BMP180;54349;52.528;19.760;2022-09-09T15:34:07;100550.20;;;22.72
67501;BMP180;54349;52.528;19.760;2022-09-09T15:36:44;100557.60;;;22.80
67501;BMP180;54349;52.528;19.760;2022-09-09T15:39:17;100567.20;;;22.84
67501;BMP180;54349;52.528;19.760;2022-09-09T15:41:47;100570.40;;;22.90
67501;BMP180;54349;52.528;19.760;2022-09-09T15:44:17;100574.40;;;23.00
67501;BMP180;54349;52.528;19.760;2022-09-09T15:46:52;100567.00;;;22.86
67501;BMP180;54349;52.528;19.760;2022-09-09T15:49:26;100568.20;;;22.80
67501;BMP180;54349;52.528;19.760;2022-09-09T15:51:58;100564.00;;;22.80
67501;BMP180;54349;52.528;19.760;2022-09-09T15:54:26;100562.40;;;22.90
67501;BMP180;54349;52.528;19.760;2022-09-09T15:57:01;100562.40;;;23.00
67501;BMP180;54349;52.528;19.760;2022-09-09T15:59:32;100564.00;;;23.00
67501;BMP180;54349;52.528;19.760;2022-09-09T16:02:02;100563.20;;;22.80
67501;BMP180;54349;52.528;19.760;2022-09-09T16:04:31;100553.80;;;22.80
67501;BMP180;54349;52.528;19.760;2022-09-09T16:07:04;100550.80;;;22.88
67501;BMP180;54349;52.528;19.760;2022-09-09T16:09:34;100554.20;;;22.90
67501;BMP180;54349;52.528;19.760;2022-09-09T16:12:04;100550.60;;;23.00
67501;BMP180;54349;52.528;19.760;2022-09-09T16:14:37;100552.40;;;22.80
67501;BMP180;54349;52.528;19.760;2022-09-09T16:17:06;100552.60;;;22.80
67501;BMP180;54349;52.528;19.760;2022-09-09T16:19:35;100555.80;;;22.80